Time;durP1;ratioP1;P1;durP2;ratioP2;P2;SDS_P1;SDS_P2;PMS_P1;PMS_P2;Temp;Humidity;BMP_temperature;BMP_pressure;BME280_temperature;BME280_humidity;BME280_pressure;Samples;Min_cycle;Max_cycle;Signal;HPM_P1;HPM_P2
2022/12/25 00:02:30;;;;;;;10.18;6.93;;;25.10;99.90;;;;;;5091418;28;20215;-84
2022/12/25 00:05:03;;;;;;;11.48;7.85;;;25.20;99.90;;;;;;5091778;28;20223;-84
2022/12/25 00:07:34;;;;;;;14.38;7.90;;;25.20;99.90;;;;;;5091660;28;20203;-85
2022/12/25 00:10:05;;;;;;;9.75;7.45;;;25.20;99.90;;;;;;5092813;28;20234;-84
2022/12/25 00:12:36;;;;;;;11.57;7.53;;;25.30;99.90;;;;;;5092069;28;20277;-84
2022/12/25 00:15:08;;;;;;;12.05;7.65;;;25.40;99.90;;;;;;5082541;28;20638;-83
2022/12/25 00:17:38;;;;;;;12.32;7.70;;;25.50;99.90;;;;;;5082591;28;20199;-84
2022/12/25 00:20:12;;;;;;;10.88;7.80;;;25.60;99.90;;;;;;5094356;28;20226;-83
2022/12/25 00:22:43;;;;;;;11.38;7.72;;;25.70;99.90;;;;;;5093893;28;20218;-84
2022/12/25 00:25:15;;;;;;;9.27;7.32;;;25.80;99.90;;;;;;5098287;28;20701;-85
2022/12/25 00:27:45;;;;;;;12.13;7.68;;;25.90;99.90;;;;;;5106276;28;20805;-86
2022/12/25 00:30:16;;;;;;;11.15;7.13;;;26.10;99.90;;;;;;5092786;28;20263;-85
2022/12/25 00:32:47;;;;;;;12.63;7.50;;;26.10;99.90;;;;;;5088392;28;20207;-84
2022/12/25 00:35:20;;;;;;;8.60;7.43;;;26.00;99.90;;;;;;5084204;28;20745;-84
2022/12/25 00:37:51;;;;;;;10.02;7.90;;;26.10;99.90;;;;;;5094094;28;20199;-84
2022/12/25 00:40:22;;;;;;;9.90;7.93;;;26.10;99.90;;;;;;5107745;28;20194;-84
2022/12/25 00:42:53;;;;;;;14.48;8.65;;;26.10;99.90;;;;;;5106959;28;20222;-84
2022/12/25 00:45:23;;;;;;;10.73;8.00;;;26.10;99.90;;;;;;5110346;28;20208;-83
2022/12/25 00:47:55;;;;;;;10.35;7.45;;;26.10;99.90;;;;;;5110034;28;20191;-86
2022/12/25 00:50:27;;;;;;;9.80;7.97;;;26.30;99.90;;;;;;5104899;28;20218;-88
2022/12/25 00:52:58;;;;;;;13.68;7.97;;;26.40;99.90;;;;;;5111019;28;20206;-89
2022/12/25 00:55:29;;;;;;;9.52;7.60;;;26.50;99.90;;;;;;5099473;28;20206;-89
2022/12/25 00:58:00;;;;;;;9.85;7.72;;;26.50;99.90;;;;;;5095965;28;20572;-89
2022/12/25 01:00:31;;;;;;;11.00;7.90;;;26.60;99.90;;;;;;5092200;28;20211;-89
2022/12/25 01:03:02;;;;;;;9.55;7.65;;;26.80;99.90;;;;;;5088938;28;20754;-89
2022/12/25 01:05:35;;;;;;;10.88;7.93;;;26.80;99.90;;;;;;5087367;28;20229;-89
2022/12/25 01:08:07;;;;;;;12.77;7.57;;;26.80;99.90;;;;;;5092598;28;20282;-90
2022/12/25 01:10:36;;;;;;;11.32;7.63;;;26.70;99.90;;;;;;5093313;28;20278;-89
2022/12/25 01:13:07;;;;;;;12.32;8.52;;;26.80;99.90;;;;;;5092272;28;20202;-89
2022/12/25 01:15:39;;;;;;;7.88;7.00;;;27.00;99.90;;;;;;5092167;28;20260;-90
2022/12/25 01:18:11;;;;;;;10.65;6.97;;;27.10;99.90;;;;;;5092630;28;20416;-87
2022/12/25 01:20:44;;;;;;;9.13;7.53;;;27.30;99.90;;;;;;5088853;28;20206;-90
2022/12/25 01:23:15;;;;;;;9.65;7.30;;;27.40;99.90;;;;;;5112923;28;20254;-90
2022/12/25 01:25:47;;;;;;;9.38;7.15;;;27.50;99.90;;;;;;5114000;28;20218;-89
2022/12/25 01:28:18;;;;;;;9.95;7.45;;;27.60;99.90;;;;;;5102369;28;20230;-88
2022/12/25 01:30:51;;;;;;;9.63;7.55;;;27.60;99.90;;;;;;5096497;28;20192;-89
2022/12/25 01:33:22;;;;;;;11.60;7.72;;;27.80;99.90;;;;;;5091688;28;20199;-88
2022/12/25 01:35:55;;;;;;;11.82;7.85;;;27.80;99.90;;;;;;5084054;28;20196;-89
2022/12/25 01:38:26;;;;;;;11.75;7.68;;;27.90;99.90;;;;;;5083366;28;20286;-89
2022/12/25 01:40:56;;;;;;;10.55;7.90;;;28.00;99.90;;;;;;5091718;28;20729;-89
2022/12/25 01:43:28;;;;;;;10.45;7.47;;;27.90;99.90;;;;;;5092439;28;20568;-89
2022/12/25 01:46:02;;;;;;;11.80;8.15;;;28.00;99.90;;;;;;5090474;28;20243;-89
2022/12/25 01:48:35;;;;;;;11.07;8.30;;;28.00;99.90;;;;;;5091845;28;20245;-88
2022/12/25 01:51:17;;;;;;;10.95;9.32;;;28.00;99.90;;;;;;5094267;28;20286;-88
2022/12/25 01:53:47;;;;;;;12.20;8.77;;;28.00;99.90;;;;;;5091246;28;20286;-88
2022/12/25 01:56:18;;;;;;;10.75;9.27;;;27.90;99.90;;;;;;5073247;28;20206;-88
2022/12/25 01:58:49;;;;;;;11.75;8.60;;;27.80;99.90;;;;;;5071715;28;20192;-88
2022/12/25 03:06:41;;;;;;;12.65;9.40;;;27.20;99.90;;;;;;5068007;28;20329;-85
2022/12/25 03:07:54;;;;;;;10.80;8.85;;;28.40;99.90;;;;;;5066051;28;20207;-82
2022/12/25 03:13:30;;;;;;;9.40;8.45;;;28.60;99.90;;;;;;5062045;28;20703;-82
2022/12/25 03:18:48;;;;;;;11.25;9.35;;;28.40;99.90;;;;;;5046970;28;20398;-83
2022/12/25 03:26:56;;;;;;;10.20;9.07;;;28.60;99.90;;;;;;5054299;28;20699;-82
2022/12/25 03:32:28;;;;;;;10.40;9.30;;;28.80;99.90;;;;;;5054022;28;20285;-81
2022/12/25 03:35:24;;;;;;;10.70;9.60;;;28.70;99.90;;;;;;5059930;28;20282;-82
2022/12/25 04:37:22;;;;;;;8.25;6.60;;;29.40;99.90;;;;;;5031876;28;20745;-82
2022/12/25 04:39:53;;;;;;;8.90;6.93;;;29.40;99.90;;;;;;5035367;28;20228;-81
2022/12/25 04:42:25;;;;;;;9.10;7.35;;;29.50;99.90;;;;;;5044100;28;20229;-82
2022/12/25 04:44:56;;;;;;;11.23;7.50;;;29.60;99.90;;;;;;5035250;28;20192;-82
2022/12/25 04:47:27;;;;;;;8.88;7.97;;;29.20;99.90;;;;;;5039959;28;20285;-83
2022/12/25 04:49:59;;;;;;;9.30;8.30;;;29.40;99.90;;;;;;5052323;28;20288;-83
2022/12/25 04:52:36;;;;;;;7.53;6.65;;;29.70;99.90;;;;;;5031814;28;20287;-82
2022/12/25 04:55:08;;;;;;;8.38;7.15;;;29.90;99.90;;;;;;5032070;28;20219;-82
2022/12/25 04:57:39;;;;;;;7.35;6.50;;;30.00;99.90;;;;;;5032452;28;20217;-83
2022/12/25 05:00:11;;;;;;;9.82;7.13;;;30.00;99.90;;;;;;5040263;28;20210;-84
2022/12/25 05:02:42;;;;;;;8.50;5.93;;;29.90;99.90;;;;;;5050107;28;20188;-83
2022/12/25 05:05:15;;;;;;;10.30;5.70;;;29.60;99.90;;;;;;5052089;28;20209;-83
2022/12/25 05:07:47;;;;;;;8.05;6.40;;;29.90;99.90;;;;;;5040303;28;20637;-83
2022/12/25 05:10:18;;;;;;;7.38;5.10;;;30.20;99.90;;;;;;5050624;28;20229;-82
2022/12/25 05:12:49;;;;;;;6.38;5.15;;;30.20;99.90;;;;;;5044614;28;20270;-82
2022/12/25 05:15:20;;;;;;;8.93;5.55;;;30.50;99.90;;;;;;5032218;28;20236;-84
2022/12/25 05:17:52;;;;;;;6.80;4.75;;;30.70;99.90;;;;;;5044445;28;20217;-83
2022/12/25 05:20:23;;;;;;;5.25;4.68;;;30.90;99.90;;;;;;5036362;28;20197;-85
2022/12/25 05:22:55;;;;;;;7.70;4.40;;;30.80;99.90;;;;;;5038583;28;20200;-83
2022/12/25 05:25:26;;;;;;;7.00;4.10;;;30.90;99.90;;;;;;5047178;28;20228;-83
2022/12/25 05:27:59;;;;;;;5.50;4.75;;;30.80;99.90;;;;;;5051067;28;20210;-83
2022/12/25 05:30:30;;;;;;;4.47;4.05;;;30.80;99.90;;;;;;5047425;28;20320;-83
2022/12/25 05:33:00;;;;;;;8.13;4.43;;;30.90;99.90;;;;;;5052691;28;20281;-80
2022/12/25 05:35:32;;;;;;;5.32;3.88;;;30.80;99.90;;;;;;5043592;28;20193;-81
2022/12/25 05:38:06;;;;;;;7.00;4.45;;;31.00;99.90;;;;;;5040661;28;20228;-84
2022/12/25 05:40:40;;;;;;;6.50;4.05;;;31.20;99.90;;;;;;5053918;28;20631;-81
2022/12/25 05:43:11;;;;;;;5.68;3.85;;;31.10;99.90;;;;;;5052061;28;20207;-84
2022/12/25 05:45:42;;;;;;;5.38;3.30;;;31.00;99.90;;;;;;5043493;28;20284;-82
2022/12/25 05:48:14;;;;;;;7.07;3.60;;;31.00;99.90;;;;;;5053168;28;20201;-82
2022/12/25 05:50:45;;;;;;;5.18;3.50;;;31.50;99.90;;;;;;5051821;28;20200;-82
2022/12/25 05:53:19;;;;;;;4.40;3.08;;;31.50;99.90;;;;;;5045508;28;20276;-83
2022/12/25 05:55:50;;;;;;;7.82;4.00;;;31.70;99.90;;;;;;5052628;28;20197;-83
2022/12/25 05:58:20;;;;;;;5.40;3.20;;;32.00;99.90;;;;;;5057453;28;20307;-81
2022/12/25 06:00:54;;;;;;;4.20;2.88;;;32.10;99.90;;;;;;5050870;28;20193;-82
2022/12/25 06:03:25;;;;;;;4.43;3.20;;;31.70;99.90;;;;;;5034970;28;20223;-83
2022/12/25 06:05:56;;;;;;;5.68;2.90;;;31.80;99.90;;;;;;5040453;28;20718;-83
2022/12/25 06:08:29;;;;;;;4.35;2.85;;;32.00;99.90;;;;;;5035929;28;20314;-83
2022/12/25 06:11:00;;;;;;;4.80;3.05;;;32.30;99.90;;;;;;5048458;28;20280;-84
2022/12/25 06:13:31;;;;;;;5.18;2.75;;;31.90;99.90;;;;;;5054302;28;20242;-83
2022/12/25 06:16:04;;;;;;;4.18;2.95;;;31.80;99.90;;;;;;5039402;28;20273;-83
2022/12/25 06:18:40;;;;;;;4.55;2.75;;;31.60;99.90;;;;;;5051237;28;20279;-84
2022/12/25 06:21:12;;;;;;;4.03;2.58;;;32.00;99.90;;;;;;5042711;28;20192;-83
2022/12/25 06:23:45;;;;;;;4.05;2.90;;;31.90;99.90;;;;;;5033875;28;20292;-83
2022/12/25 06:26:19;;;;;;;5.70;3.00;;;31.80;99.90;;;;;;5047976;28;20251;-83
2022/12/25 06:29:02;;;;;;;5.85;2.92;;;31.90;99.90;;;;;;5052848;28;20222;-83
2022/12/25 06:31:33;;;;;;;4.88;3.05;;;31.90;99.90;;;;;;5060215;28;20651;-82
2022/12/25 06:34:04;;;;;;;3.22;2.60;;;31.80;99.90;;;;;;5049820;28;20259;-82
2022/12/25 06:36:35;;;;;;;4.30;2.90;;;31.80;99.90;;;;;;5073117;28;20189;-82
2022/12/25 06:39:11;;;;;;;6.07;2.60;;;31.90;99.90;;;;;;5055824;28;20247;-82
2022/12/25 06:41:42;;;;;;;3.40;2.60;;;31.90;99.90;;;;;;5052827;28;20200;-83
2022/12/25 06:44:13;;;;;;;7.60;2.63;;;31.80;99.90;;;;;;5056344;28;20201;-84
2022/12/25 06:46:44;;;;;;;4.95;2.72;;;32.30;99.90;;;;;;5062158;28;20205;-83
2022/12/25 06:49:15;;;;;;;3.30;2.33;;;32.40;99.90;;;;;;5036231;28;20305;-84
2022/12/25 06:51:47;;;;;;;4.53;2.35;;;32.60;99.90;;;;;;5055785;28;20262;-85
2022/12/25 06:54:20;;;;;;;5.30;2.95;;;33.00;99.90;;;;;;5051501;28;20261;-83
2022/12/25 06:56:51;;;;;;;3.00;2.30;;;33.40;99.90;;;;;;5054504;28;20252;-83
2022/12/25 06:59:22;;;;;;;3.38;2.42;;;33.40;99.90;;;;;;5054918;28;20224;-83
2022/12/25 07:01:57;;;;;;;4.53;2.25;;;33.20;99.90;;;;;;5056394;28;20196;-83
2022/12/25 07:04:34;;;;;;;4.22;2.25;;;33.20;99.90;;;;;;5048833;28;20239;-82
2022/12/25 07:07:05;;;;;;;3.35;2.25;;;33.50;99.90;;;;;;5029786;28;20267;-83
2022/12/25 07:09:38;;;;;;;4.68;2.30;;;33.60;99.90;;;;;;5041457;28;20655;-82
2022/12/25 07:12:15;;;;;;;2.90;2.03;;;33.40;99.90;;;;;;5044661;28;20246;-83
2022/12/25 07:14:47;;;;;;;6.28;2.50;;;33.80;99.90;;;;;;5038504;28;20215;-84
2022/12/25 07:17:18;;;;;;;3.45;2.15;;;34.10;99.90;;;;;;5040082;28;20197;-82
2022/12/25 07:19:49;;;;;;;4.50;2.13;;;34.10;99.90;;;;;;5033803;28;20229;-83
2022/12/25 07:22:20;;;;;;;4.57;2.10;;;34.30;99.90;;;;;;5031072;28;22083;-85
2022/12/25 07:27:40;;;;;;;4.05;1.90;;;34.60;99.90;;;;;;5045461;28;20201;-86
2022/12/25 07:30:11;;;;;;;3.08;2.00;;;34.40;99.90;;;;;;5041833;28;20204;-86
2022/12/25 07:32:42;;;;;;;2.38;2.00;;;34.20;99.90;;;;;;5048435;28;20257;-85
2022/12/25 07:35:13;;;;;;;3.45;1.90;;;33.90;99.90;;;;;;5048115;28;20203;-87
2022/12/25 07:37:45;;;;;;;3.08;1.90;;;33.70;99.90;;;;;;5072212;28;20293;-86
2022/12/25 07:40:20;;;;;;;2.45;1.80;;;33.60;99.90;;;;;;5047449;28;20327;-85
2022/12/25 07:42:52;;;;;;;4.40;2.00;;;33.70;99.90;;;;;;5049952;28;20687;-86
2022/12/25 07:45:23;;;;;;;2.67;1.80;;;33.70;99.90;;;;;;5055478;28;20211;-87
2022/12/25 07:47:54;;;;;;;4.43;2.10;;;33.50;99.90;;;;;;5039774;28;20820;-85
2022/12/25 07:50:25;;;;;;;3.90;2.03;;;33.30;99.90;;;;;;5039350;28;20300;-85
2022/12/25 07:52:59;;;;;;;2.97;1.90;;;33.30;99.90;;;;;;5040253;28;20201;-86
2022/12/25 07:55:33;;;;;;;5.75;2.20;;;33.10;99.90;;;;;;5042320;28;20243;-86
2022/12/25 07:58:04;;;;;;;2.60;2.10;;;32.90;99.90;;;;;;5041024;28;20686;-86
2022/12/25 08:00:39;;;;;;;3.75;2.10;;;32.80;99.90;;;;;;5038285;28;20285;-86
2022/12/25 08:03:10;;;;;;;2.58;2.00;;;32.60;99.90;;;;;;5043920;28;20251;-85
2022/12/25 08:05:43;;;;;;;2.58;2.00;;;32.30;99.90;;;;;;5047926;28;20189;-85
2022/12/25 08:08:14;;;;;;;3.33;2.15;;;32.10;99.90;;;;;;5054173;28;20228;-85
2022/12/25 08:10:52;;;;;;;3.90;2.15;;;31.60;99.90;;;;;;5040006;28;20284;-85
2022/12/25 08:13:27;;;;;;;5.25;2.60;;;30.80;99.90;;;;;;5040453;28;20263;-85
2022/12/25 08:16:01;;;;;;;2.97;2.70;;;30.20;99.90;;;;;;5040805;28;20203;-84
2022/12/25 08:18:33;;;;;;;4.38;2.38;;;29.70;99.90;;;;;;5035736;28;20192;-83
2022/12/25 08:21:06;;;;;;;3.67;2.58;;;29.20;99.90;;;;;;5046595;28;20316;-85
2022/12/25 08:23:38;;;;;;;5.05;3.05;;;28.90;99.90;;;;;;5040119;28;20630;-86
2022/12/25 08:26:13;;;;;;;4.18;3.08;;;28.40;99.90;;;;;;5036929;28;20217;-85
2022/12/25 08:28:44;;;;;;;5.78;3.10;;;28.30;99.90;;;;;;5037744;28;20311;-85
2022/12/25 08:31:18;;;;;;;6.93;3.30;;;28.10;99.90;;;;;;5034150;28;20243;-84
2022/12/25 08:33:50;;;;;;;5.35;2.83;;;27.80;99.90;;;;;;5034469;28;20783;-84
2022/12/25 08:36:21;;;;;;;3.88;2.95;;;27.60;99.90;;;;;;5034837;28;20579;-84
2022/12/25 08:38:52;;;;;;;5.05;3.00;;;27.40;99.90;;;;;;5066106;28;20232;-83
2022/12/25 08:41:25;;;;;;;3.45;2.63;;;27.20;99.90;;;;;;5069699;28;20227;-82
2022/12/25 08:43:55;;;;;;;5.20;3.00;;;27.10;99.90;;;;;;5054438;28;20641;-84
2022/12/25 08:52:32;;;;;;;4.28;3.10;;;26.70;99.90;;;;;;5032446;28;20585;-85
2022/12/25 08:55:07;;;;;;;5.03;3.42;;;26.50;99.90;;;;;;5024692;28;20200;-83
2022/12/25 08:57:40;;;;;;;6.55;3.60;;;26.50;99.90;;;;;;5005667;28;20235;-84
2022/12/25 09:00:14;;;;;;;5.03;3.20;;;26.40;99.90;;;;;;5005506;28;20175;-85
2022/12/25 09:02:45;;;;;;;6.32;3.30;;;26.30;99.90;;;;;;5005689;28;20262;-86
2022/12/25 09:05:16;;;;;;;4.70;3.88;;;26.10;99.90;;;;;;5006684;28;20258;-85
2022/12/25 09:07:48;;;;;;;7.40;3.97;;;26.10;99.90;;;;;;5006608;28;20198;-83
2022/12/25 09:10:21;;;;;;;5.88;4.07;;;26.20;99.90;;;;;;5006036;28;20221;-85
2022/12/25 09:13:27;;;;;;;7.53;4.15;;;26.10;99.90;;;;;;4983131;28;20258;-84
2022/12/25 09:15:59;;;;;;;6.85;3.80;;;26.10;99.90;;;;;;4985804;28;20306;-85
2022/12/25 09:18:33;;;;;;;5.82;3.50;;;26.10;99.90;;;;;;4990243;28;20282;-85
2022/12/25 09:21:11;;;;;;;5.22;3.92;;;26.10;99.90;;;;;;5003990;28;20203;-84
2022/12/25 09:23:42;;;;;;;4.40;3.67;;;25.90;99.90;;;;;;5013877;28;20214;-84
2022/12/25 09:26:31;;;;;;;4.80;3.45;;;25.80;99.90;;;;;;5005723;28;20187;-84
2022/12/25 09:29:43;;;;;;;5.82;3.80;;;25.80;99.90;;;;;;4989678;28;22885;-87
2022/12/25 09:32:28;;;;;;;7.18;3.70;;;25.80;99.90;;;;;;4987943;28;20535;-84
2022/12/25 09:35:00;;;;;;;4.60;3.00;;;25.80;99.90;;;;;;4981897;28;20226;-85
2022/12/25 09:37:31;;;;;;;6.25;3.28;;;25.80;99.90;;;;;;4982364;28;20225;-84
2022/12/25 09:40:03;;;;;;;6.20;3.20;;;25.80;99.90;;;;;;4989422;28;20229;-85
2022/12/25 09:42:38;;;;;;;6.22;3.20;;;25.70;99.90;;;;;;4995949;28;20353;-86
2022/12/25 09:45:15;;;;;;;3.72;2.97;;;25.80;99.90;;;;;;4988567;28;20198;-84
2022/12/25 09:47:59;;;;;;;3.72;2.80;;;25.70;99.90;;;;;;4985608;28;20345;-84
2022/12/25 09:50:42;;;;;;;4.18;2.78;;;25.60;99.90;;;;;;4980931;28;20223;-82
2022/12/25 09:53:22;;;;;;;4.68;3.17;;;25.60;99.90;;;;;;4979386;28;20678;-84
2022/12/25 09:56:05;;;;;;;4.85;3.30;;;25.50;99.90;;;;;;4983385;28;20210;-83
2022/12/25 09:58:38;;;;;;;5.03;3.08;;;25.50;99.90;;;;;;4988576;28;20230;-84
2022/12/25 10:01:19;;;;;;;5.28;3.30;;;25.50;99.90;;;;;;4988884;28;21298;-86
2022/12/25 10:04:16;;;;;;;5.43;3.20;;;25.50;99.90;;;;;;4993476;28;20202;-85
2022/12/25 10:10:01;;;;;;;4.88;2.92;;;25.40;99.90;;;;;;4995671;28;20274;-83
2022/12/25 10:12:48;;;;;;;6.10;3.20;;;25.40;99.90;;;;;;4975754;28;20198;-84
2022/12/25 10:15:35;;;;;;;4.22;2.67;;;25.30;99.90;;;;;;4989128;28;20199;-86
2022/12/25 10:18:33;;;;;;;6.10;2.97;;;25.30;99.90;;;;;;4991545;28;20215;-83
2022/12/25 10:21:13;;;;;;;5.40;3.10;;;25.30;99.90;;;;;;5009469;28;20207;-83
2022/12/25 10:23:55;;;;;;;5.72;2.67;;;25.20;99.90;;;;;;4983252;28;20285;-84
2022/12/25 10:26:29;;;;;;;4.50;2.72;;;25.20;99.90;;;;;;4995318;28;20199;-83
2022/12/25 10:29:03;;;;;;;5.93;3.00;;;25.10;99.90;;;;;;5006455;28;20233;-85
2022/12/25 10:31:37;;;;;;;3.83;2.83;;;25.10;99.90;;;;;;4996088;28;20238;-84
2022/12/25 10:34:11;;;;;;;5.32;2.80;;;25.10;99.90;;;;;;4996839;28;20207;-84
2022/12/25 10:36:45;;;;;;;4.45;2.65;;;25.10;99.90;;;;;;4993373;28;20191;-86
2022/12/25 10:39:21;;;;;;;3.20;2.40;;;25.10;99.90;;;;;;4991023;28;20193;-86
2022/12/25 10:42:10;;;;;;;7.13;2.60;;;25.10;99.90;;;;;;4996318;28;20198;-88
2022/12/25 10:44:49;;;;;;;3.47;2.17;;;25.10;99.90;;;;;;5006117;28;20183;-86
2022/12/25 10:47:27;;;;;;;6.60;2.90;;;25.10;99.90;;;;;;5002648;28;20265;-84
2022/12/25 10:49:58;;;;;;;4.60;2.30;;;25.00;99.90;;;;;;4999036;28;20230;-89
2022/12/25 10:52:47;;;;;;;5.95;2.60;;;25.00;99.90;;;;;;4980995;28;20282;-85
2022/12/25 10:55:23;;;;;;;4.80;2.53;;;25.00;99.90;;;;;;4978382;28;20617;-84
2022/12/25 10:57:56;;;;;;;6.78;2.80;;;25.10;99.90;;;;;;4983976;28;20695;-84
2022/12/25 11:00:34;;;;;;;4.63;2.15;;;25.00;99.90;;;;;;5010127;28;20183;-84
2022/12/25 11:03:07;;;;;;;6.47;2.35;;;25.00;99.90;;;;;;5012602;28;20198;-85
2022/12/25 11:05:39;;;;;;;5.95;2.47;;;24.90;99.90;;;;;;5010794;28;20198;-86
2022/12/25 11:08:22;;;;;;;3.63;2.05;;;24.90;99.90;;;;;;5000549;28;20202;-85
2022/12/25 11:11:04;;;;;;;5.30;2.40;;;24.90;99.90;;;;;;4999147;28;20214;-86
2022/12/25 11:13:37;;;;;;;5.22;2.47;;;24.80;99.90;;;;;;4998894;28;20203;-86
2022/12/25 11:16:13;;;;;;;5.47;2.20;;;24.80;99.90;;;;;;5000704;28;20261;-85
2022/12/25 11:18:52;;;;;;;5.93;2.20;;;24.80;99.90;;;;;;5000977;28;20573;-86
2022/12/25 11:21:26;;;;;;;5.20;2.20;;;24.80;99.90;;;;;;4994020;28;20203;-87
2022/12/25 11:24:04;;;;;;;7.28;2.03;;;24.80;99.90;;;;;;4984499;28;20286;-87
2022/12/25 11:26:47;;;;;;;5.45;2.28;;;24.80;99.90;;;;;;4996121;28;20229;-86
2022/12/25 11:29:27;;;;;;;5.90;2.20;;;24.80;99.90;;;;;;5002686;28;20317;-87
2022/12/25 11:32:01;;;;;;;5.97;2.25;;;24.70;99.90;;;;;;4999949;28;20289;-83
2022/12/25 11:34:35;;;;;;;7.13;2.25;;;24.70;99.90;;;;;;4998411;28;20706;-84
2022/12/25 11:37:10;;;;;;;6.40;2.33;;;24.70;99.90;;;;;;4999935;28;20309;-85
2022/12/25 11:39:44;;;;;;;7.47;2.05;;;24.70;99.90;;;;;;4997263;28;20300;-85
2022/12/25 11:42:31;;;;;;;7.63;2.35;;;24.70;99.90;;;;;;4990946;28;20612;-84
2022/12/25 11:45:29;;;;;;;6.35;2.13;;;24.60;99.90;;;;;;5017492;28;20219;-83
2022/12/25 11:48:05;;;;;;;7.00;1.85;;;24.60;99.90;;;;;;5000772;28;20273;-83
2022/12/25 11:50:38;;;;;;;6.97;1.90;;;24.60;99.90;;;;;;5003194;28;20244;-84
2022/12/25 11:53:17;;;;;;;6.03;1.80;;;24.60;99.90;;;;;;5002283;28;20225;-84
2022/12/25 11:56:10;;;;;;;5.72;1.70;;;24.60;99.90;;;;;;4997867;28;20274;-86
2022/12/25 11:58:45;;;;;;;8.25;1.92;;;24.60;99.90;;;;;;5001545;28;20218;-84
2022/12/25 12:01:29;;;;;;;4.90;1.80;;;24.60;99.90;;;;;;4997316;28;20246;-86
2022/12/25 12:04:05;;;;;;;6.88;1.90;;;24.50;99.90;;;;;;5001075;28;20231;-85
2022/12/25 12:06:52;;;;;;;7.05;2.13;;;24.60;99.90;;;;;;5008778;28;20198;-85
2022/12/25 12:09:37;;;;;;;6.72;1.83;;;24.50;99.90;;;;;;5017844;28;20357;-85
2022/12/25 12:15:20;;;;;;;6.38;1.70;;;24.50;99.90;;;;;;5009825;28;20250;-84
2022/12/25 12:20:41;;;;;;;5.88;1.83;;;24.50;99.90;;;;;;4994475;28;20198;-84
2022/12/25 12:23:19;;;;;;;5.03;1.70;;;24.50;99.90;;;;;;4991147;28;20285;-83
2022/12/25 12:25:50;;;;;;;4.93;1.70;;;24.50;99.90;;;;;;4991499;28;20195;-84
2022/12/25 12:28:27;;;;;;;8.77;2.13;;;24.50;99.90;;;;;;4990643;28;20205;-83
2022/12/25 12:31:03;;;;;;;6.18;1.73;;;24.50;99.90;;;;;;4993862;28;20232;-85
2022/12/25 12:33:38;;;;;;;9.20;2.20;;;24.50;99.90;;;;;;4993716;28;20229;-85
2022/12/25 12:36:12;;;;;;;6.53;1.80;;;24.40;99.90;;;;;;4994264;28;20231;-84
2022/12/25 12:38:47;;;;;;;6.10;1.77;;;24.40;99.90;;;;;;4990283;28;20213;-85
2022/12/25 12:41:21;;;;;;;5.63;1.77;;;24.40;99.90;;;;;;4993856;28;20198;-85
2022/12/25 12:43:59;;;;;;;5.30;1.52;;;24.30;99.90;;;;;;4986537;28;20245;-85
2022/12/25 12:46:33;;;;;;;8.30;2.05;;;24.40;99.90;;;;;;4989303;28;20195;-85
2022/12/25 12:49:21;;;;;;;8.23;1.85;;;24.40;99.90;;;;;;5003045;28;20182;-84
2022/12/25 12:52:03;;;;;;;5.30;1.50;;;24.40;99.90;;;;;;5004269;28;20333;-83
2022/12/25 12:54:34;;;;;;;5.97;1.63;;;24.40;99.90;;;;;;4991308;28;20225;-85
2022/12/25 12:57:07;;;;;;;5.22;1.60;;;24.40;99.90;;;;;;4993704;28;20273;-86
2022/12/25 12:59:43;;;;;;;9.25;1.83;;;24.40;99.90;;;;;;4994489;28;20194;-86
2022/12/25 13:02:53;;;;;;;6.45;1.60;;;24.40;99.90;;;;;;4994256;28;20209;-86
2022/12/25 13:05:31;;;;;;;5.55;2.10;;;24.40;99.90;;;;;;4981106;28;20198;-86
2022/12/25 13:08:11;;;;;;;6.72;1.92;;;24.30;99.90;;;;;;4995286;28;20277;-85
2022/12/25 13:10:47;;;;;;;7.68;1.67;;;24.30;99.90;;;;;;5001286;28;20222;-85
2022/12/25 13:13:22;;;;;;;5.57;1.40;;;24.30;99.90;;;;;;4992578;28;20194;-85
2022/12/25 13:15:56;;;;;;;6.90;1.85;;;24.30;99.90;;;;;;4976304;28;20663;-85
2022/12/25 13:18:27;;;;;;;5.45;1.70;;;24.30;99.90;;;;;;4979284;28;20230;-85
2022/12/25 13:21:01;;;;;;;6.43;1.67;;;24.30;99.90;;;;;;5041192;22;20233;-86
2022/12/25 13:23:33;;;;;;;6.88;1.65;;;24.30;99.90;;;;;;5041599;28;20237;-86
2022/12/25 13:26:05;;;;;;;7.43;2.03;;;24.20;99.90;;;;;;5044981;28;20228;-86
2022/12/25 13:28:40;;;;;;;7.32;1.58;;;24.20;99.90;;;;;;5042069;28;20209;-86
2022/12/25 13:31:17;;;;;;;6.85;1.70;;;24.20;99.90;;;;;;5015328;28;20213;-85
2022/12/25 13:33:52;;;;;;;6.70;1.70;;;24.10;99.90;;;;;;5028610;28;20209;-87
2022/12/25 13:36:23;;;;;;;5.43;1.75;;;24.10;99.90;;;;;;5025099;28;20280;-85
2022/12/25 13:38:56;;;;;;;7.22;1.80;;;24.10;99.90;;;;;;5019968;28;20277;-85
2022/12/25 13:44:23;;;;;;;6.05;1.60;;;24.10;99.90;;;;;;5024368;28;20200;-85
2022/12/25 13:46:57;;;;;;;7.57;1.63;;;24.10;99.90;;;;;;5033059;28;20268;-84
2022/12/25 13:49:27;;;;;;;7.40;1.83;;;24.10;99.90;;;;;;5034342;28;20212;-84
2022/12/25 13:52:12;;;;;;;6.22;1.70;;;24.10;99.90;;;;;;5039753;28;20308;-84
2022/12/25 13:54:54;;;;;;;7.88;1.70;;;24.10;99.90;;;;;;5015363;28;20921;-84
2022/12/25 13:57:29;;;;;;;7.47;1.77;;;24.10;99.90;;;;;;5021425;28;20570;-83
2022/12/25 14:00:01;;;;;;;6.75;1.50;;;24.00;99.90;;;;;;5032222;28;20275;-83
2022/12/25 14:02:36;;;;;;;8.43;1.85;;;24.00;99.90;;;;;;5023915;28;20203;-85
2022/12/25 14:05:23;;;;;;;8.55;1.90;;;24.00;99.90;;;;;;5031140;28;20192;-84
2022/12/25 14:07:54;;;;;;;7.68;1.90;;;23.90;99.90;;;;;;5032089;28;20279;-86
2022/12/25 14:10:29;;;;;;;9.18;1.55;;;23.90;99.90;;;;;;5016226;28;20217;-86
2022/12/25 14:13:04;;;;;;;7.35;1.80;;;23.90;99.90;;;;;;5030908;28;20644;-84
2022/12/25 14:15:40;;;;;;;6.57;1.58;;;23.90;99.90;;;;;;5028296;28;20201;-85
2022/12/25 14:18:18;;;;;;;7.85;1.70;;;23.90;99.90;;;;;;5042707;28;20197;-89
2022/12/25 14:21:00;;;;;;;7.32;1.92;;;23.90;99.90;;;;;;5032679;28;20196;-84
2022/12/25 14:23:41;;;;;;;6.65;1.50;;;23.80;99.90;;;;;;5017653;28;20314;-85
2022/12/25 14:26:19;;;;;;;5.57;1.90;;;23.80;99.90;;;;;;5021190;28;20637;-85
2022/12/25 14:28:51;;;;;;;7.75;2.08;;;23.80;99.90;;;;;;5018621;28;20193;-85
2022/12/25 14:31:23;;;;;;;7.32;1.70;;;23.70;99.90;;;;;;5031489;28;20683;-85
2022/12/25 14:33:57;;;;;;;6.60;1.83;;;23.70;99.90;;;;;;5026432;28;20186;-85
2022/12/25 14:36:29;;;;;;;5.72;1.55;;;23.70;99.90;;;;;;5025857;28;20284;-84
2022/12/25 14:39:01;;;;;;;5.68;1.70;;;23.70;99.90;;;;;;5020932;28;20684;-84
2022/12/25 14:41:38;;;;;;;7.57;2.00;;;23.70;99.90;;;;;;5020688;28;20752;-85
2022/12/25 14:44:23;;;;;;;7.65;1.67;;;23.70;99.90;;;;;;5023202;28;20281;-85
2022/12/25 14:47:05;;;;;;;5.63;1.63;;;23.70;99.90;;;;;;5031734;28;20198;-85
2022/12/25 14:49:38;;;;;;;6.68;1.80;;;23.70;99.90;;;;;;5018438;28;20260;-86
2022/12/25 14:52:17;;;;;;;5.57;1.60;;;23.70;99.90;;;;;;5032731;28;20666;-85
2022/12/25 14:54:51;;;;;;;4.70;1.50;;;23.70;99.90;;;;;;5031497;28;20200;-85
2022/12/25 14:57:32;;;;;;;5.22;1.55;;;23.70;99.90;;;;;;5027342;28;20284;-85
2022/12/25 15:00:08;;;;;;;6.40;1.63;;;23.70;99.90;;;;;;5028313;28;20193;-84
2022/12/25 15:02:46;;;;;;;9.02;2.10;;;23.70;99.90;;;;;;5031786;28;20270;-85
2022/12/25 15:05:33;;;;;;;4.68;1.48;;;23.60;99.90;;;;;;5031581;28;20207;-85
2022/12/25 15:08:22;;;;;;;6.88;1.98;;;23.60;99.90;;;;;;5032447;28;20192;-85
2022/12/25 15:10:53;;;;;;;6.57;1.50;;;23.60;99.90;;;;;;5027299;28;20317;-83
2022/12/25 15:13:25;;;;;;;7.28;1.83;;;23.60;99.90;;;;;;5030718;28;20203;-85
2022/12/25 15:15:59;;;;;;;8.25;1.60;;;23.50;99.90;;;;;;5020663;28;20280;-84
2022/12/25 15:18:33;;;;;;;4.47;1.50;;;23.50;99.90;;;;;;5030072;28;20482;-84
2022/12/25 15:21:06;;;;;;;5.03;1.70;;;23.50;99.90;;;;;;5031431;28;20572;-84
2022/12/25 15:23:37;;;;;;;6.20;1.90;;;23.50;99.90;;;;;;5029224;28;20200;-83
2022/12/25 15:26:08;;;;;;;7.10;1.95;;;23.40;99.90;;;;;;5031706;28;20205;-83
2022/12/25 15:28:39;;;;;;;5.65;1.50;;;23.50;99.90;;;;;;5029374;28;20204;-84
2022/12/25 15:31:19;;;;;;;6.00;1.65;;;23.50;99.90;;;;;;5015728;28;20589;-84
2022/12/25 15:33:50;;;;;;;5.90;1.85;;;23.40;99.90;;;;;;5049580;28;20193;-84
2022/12/25 15:36:25;;;;;;;9.00;2.00;;;23.40;99.90;;;;;;5029130;28;20380;-84
2022/12/25 15:38:56;;;;;;;5.45;1.77;;;23.40;99.90;;;;;;5028458;28;20701;-84
2022/12/25 15:44:17;;;;;;;6.57;1.70;;;23.30;99.90;;;;;;5016985;28;20208;-84
2022/12/25 15:46:48;;;;;;;5.53;1.67;;;23.30;99.90;;;;;;5024663;28;20292;-83
2022/12/25 15:49:19;;;;;;;6.68;1.80;;;23.30;99.90;;;;;;5035539;28;20192;-84
2022/12/25 15:51:52;;;;;;;7.38;1.90;;;23.30;99.90;;;;;;5043166;28;20225;-83
2022/12/25 15:54:23;;;;;;;4.13;1.35;;;23.30;99.90;;;;;;5031679;28;20202;-83
2022/12/25 15:56:56;;;;;;;7.80;2.00;;;23.20;99.90;;;;;;5015871;28;20395;-84
2022/12/25 15:59:27;;;;;;;7.13;1.75;;;23.30;99.90;;;;;;5023914;28;20664;-83
2022/12/25 16:01:59;;;;;;;4.57;1.50;;;23.20;99.90;;;;;;5034560;28;20586;-82
2022/12/25 16:04:31;;;;;;;5.50;1.80;;;23.20;99.90;;;;;;5033772;28;20200;-82
2022/12/25 16:07:04;;;;;;;5.78;1.80;;;23.10;99.90;;;;;;5033543;28;20193;-83